Time;durP1;ratioP1;P1;durP2;ratioP2;P2;SDS_P1;SDS_P2;PMS_P1;PMS_P2;Temp;Humidity;BMP_temperature;BMP_pressure;BME280_temperature;BME280_humidity;BME280_pressure;Samples;Min_cycle;Max_cycle;Signal;HPM_P1;HPM_P2
2023/09/07 00:01:01;;;;;;;10.10;9.10;;;;;;;;;;5029159;28;20190;-74
2023/09/07 00:03:26;;;;;;;11.30;9.15;;;;;;;;;;5015752;28;20194;-74
2023/09/07 00:05:51;;;;;;;10.93;8.68;;;;;;;;;;5023155;28;20226;-74
2023/09/07 00:08:17;;;;;;;9.80;8.80;;;;;;;;;;5028687;28;20273;-74
2023/09/07 00:10:42;;;;;;;11.98;9.07;;;;;;;;;;5025894;28;20229;-74
2023/09/07 00:13:08;;;;;;;13.18;9.25;;;;;;;;;;5022364;28;20194;-74
2023/09/07 00:15:37;;;;;;;12.27;8.30;;;;;;;;;;5025405;28;20565;-74
2023/09/07 00:18:03;;;;;;;8.98;8.13;;;;;;;;;;5024729;28;20206;-74
2023/09/07 00:20:29;;;;;;;10.60;7.93;;;;;;;;;;5026851;28;20223;-74
2023/09/07 00:22:54;;;;;;;9.00;8.20;;;;;;;;;;5023603;28;20198;-74
2023/09/07 00:25:20;;;;;;;9.55;8.65;;;;;;;;;;5017801;28;20195;-74
2023/09/07 00:27:46;;;;;;;10.20;8.52;;;;;;;;;;5029816;28;20658;-74
2023/09/07 00:30:12;;;;;;;9.27;8.38;;;;;;;;;;5025706;28;20197;-74
2023/09/07 00:32:37;;;;;;;9.32;8.23;;;;;;;;;;5026660;28;20233;-74
2023/09/07 00:35:03;;;;;;;9.52;8.63;;;;;;;;;;5023574;28;20241;-74
2023/09/07 00:37:29;;;;;;;9.73;8.70;;;;;;;;;;5029873;28;20268;-74
2023/09/07 00:39:54;;;;;;;9.10;7.95;;;;;;;;;;5021038;28;20304;-74
2023/09/07 00:42:20;;;;;;;11.43;8.65;;;;;;;;;;5019693;28;20199;-74
2023/09/07 00:44:45;;;;;;;9.98;8.75;;;;;;;;;;5021537;28;20600;-74
2023/09/07 00:47:11;;;;;;;9.95;9.05;;;;;;;;;;5023505;28;20300;-74
2023/09/07 00:49:37;;;;;;;8.85;7.93;;;;;;;;;;5020844;28;21319;-74
2023/09/07 00:52:04;;;;;;;12.25;7.90;;;;;;;;;;5022115;28;20249;-74
2023/09/07 00:54:30;;;;;;;9.32;8.32;;;;;;;;;;5021785;28;20182;-74
2023/09/07 00:56:56;;;;;;;8.75;7.85;;;;;;;;;;5030667;28;20201;-74
2023/09/07 00:59:21;;;;;;;9.55;7.80;;;;;;;;;;5025417;28;20187;-73
2023/09/07 01:01:48;;;;;;;11.23;7.85;;;;;;;;;;5021652;28;20619;-74
2023/09/07 01:04:14;;;;;;;10.50;8.20;;;;;;;;;;5019519;28;20280;-74
2023/09/07 01:06:50;;;;;;;12.25;8.10;;;;;;;;;;5019188;28;20735;-74
2023/09/07 01:09:23;;;;;;;8.82;7.43;;;;;;;;;;5027195;28;20650;-74
2023/09/07 01:11:48;;;;;;;11.27;8.43;;;;;;;;;;5027921;28;20221;-74
2023/09/07 01:14:14;;;;;;;9.23;8.18;;;;;;;;;;5021682;28;20229;-74
2023/09/07 01:16:40;;;;;;;15.90;9.32;;;;;;;;;;5029797;28;20289;-73
2023/09/07 01:19:06;;;;;;;12.20;8.73;;;;;;;;;;5007337;28;20190;-74
2023/09/07 01:21:38;;;;;;;12.25;8.77;;;;;;;;;;5028439;28;20186;-73
2023/09/07 01:24:06;;;;;;;9.38;8.27;;;;;;;;;;5024567;28;20265;-73
2023/09/07 01:26:32;;;;;;;12.07;8.73;;;;;;;;;;5023451;28;20654;-72
2023/09/07 01:28:57;;;;;;;10.30;8.60;;;;;;;;;;5021687;28;20182;-74
2023/09/07 01:31:23;;;;;;;10.77;9.02;;;;;;;;;;5028461;28;20660;-73
2023/09/07 01:33:48;;;;;;;14.02;9.30;;;;;;;;;;5028053;28;20285;-74
2023/09/07 01:36:13;;;;;;;10.32;9.07;;;;;;;;;;5035297;28;20182;-73
2023/09/07 01:38:39;;;;;;;10.48;9.18;;;;;;;;;;5036135;28;20315;-74
2023/09/07 01:41:04;;;;;;;9.60;8.32;;;;;;;;;;5038490;28;20185;-74
2023/09/07 01:43:29;;;;;;;10.52;9.10;;;;;;;;;;5015708;28;20759;-74
2023/09/07 01:45:55;;;;;;;11.68;9.68;;;;;;;;;;5028154;28;20218;-74
2023/09/07 01:48:20;;;;;;;10.30;9.27;;;;;;;;;;5034674;28;20212;-74
2023/09/07 01:50:46;;;;;;;11.18;9.82;;;;;;;;;;5037882;28;20197;-73
2023/09/07 01:53:11;;;;;;;12.73;10.02;;;;;;;;;;5028853;28;20221;-73
2023/09/07 01:55:36;;;;;;;10.82;9.73;;;;;;;;;;5023018;28;20213;-73
2023/09/07 01:58:02;;;;;;;10.65;8.50;;;;;;;;;;5026867;28;20190;-73
2023/09/07 02:00:28;;;;;;;11.45;9.10;;;;;;;;;;5026044;28;20189;-73
2023/09/07 02:02:53;;;;;;;11.65;8.60;;;;;;;;;;5021690;28;20225;-73
2023/09/07 02:05:19;;;;;;;10.65;9.48;;;;;;;;;;5027790;28;20197;-74
2023/09/07 02:07:44;;;;;;;11.35;8.68;;;;;;;;;;5029429;28;20217;-73
2023/09/07 02:10:10;;;;;;;13.38;9.63;;;;;;;;;;5024218;28;20198;-73
2023/09/07 02:12:36;;;;;;;10.23;9.20;;;;;;;;;;5027700;28;20186;-73
2023/09/07 02:15:03;;;;;;;12.45;9.88;;;;;;;;;;5029452;28;20256;-73
2023/09/07 02:17:30;;;;;;;11.05;9.10;;;;;;;;;;5033149;28;20225;-74
2023/09/07 02:19:55;;;;;;;10.10;9.05;;;;;;;;;;5045708;28;20198;-72
2023/09/07 02:22:20;;;;;;;12.60;9.52;;;;;;;;;;5030270;28;20201;-73
2023/09/07 02:24:46;;;;;;;12.45;10.35;;;;;;;;;;5026336;28;20218;-73
2023/09/07 02:27:11;;;;;;;12.77;8.88;;;;;;;;;;5028043;28;20242;-72
2023/09/07 02:29:37;;;;;;;12.77;10.27;;;;;;;;;;5020466;28;20255;-74
2023/09/07 02:32:03;;;;;;;12.13;9.98;;;;;;;;;;5031429;28;20585;-74
2023/09/07 02:34:28;;;;;;;10.60;9.50;;;;;;;;;;5025361;28;20631;-74
2023/09/07 02:36:54;;;;;;;13.75;10.18;;;;;;;;;;5022871;28;20209;-73
2023/09/07 02:39:19;;;;;;;11.10;9.95;;;;;;;;;;5015235;28;20237;-74
2023/09/07 02:41:46;;;;;;;12.98;10.07;;;;;;;;;;5029014;28;20589;-73
2023/09/07 02:44:11;;;;;;;11.60;10.00;;;;;;;;;;5032726;28;20312;-73
2023/09/07 02:46:36;;;;;;;13.50;9.95;;;;;;;;;;5025109;28;20360;-73
2023/09/07 02:49:03;;;;;;;12.07;10.07;;;;;;;;;;5032904;28;20610;-73
2023/09/07 02:51:28;;;;;;;12.02;10.45;;;;;;;;;;5031680;28;20272;-74
2023/09/07 02:53:54;;;;;;;11.63;10.43;;;;;;;;;;5026416;28;20772;-74
2023/09/07 02:56:19;;;;;;;11.80;10.60;;;;;;;;;;5031265;28;20182;-74
2023/09/07 02:58:45;;;;;;;12.40;9.32;;;;;;;;;;5023779;28;20205;-74
2023/09/07 03:01:10;;;;;;;11.38;9.80;;;;;;;;;;5026457;28;20197;-73
2023/09/07 03:03:37;;;;;;;11.68;10.48;;;;;;;;;;5019144;28;20205;-72
2023/09/07 03:06:12;;;;;;;16.00;10.88;;;;;;;;;;5030904;28;20221;-72
2023/09/07 03:08:39;;;;;;;11.27;10.18;;;;;;;;;;5015766;28;20260;-72
2023/09/07 03:11:05;;;;;;;11.82;9.60;;;;;;;;;;5027137;28;20198;-73
2023/09/07 03:13:31;;;;;;;9.90;8.90;;;;;;;;;;5030625;28;20209;-73
2023/09/07 03:15:57;;;;;;;11.63;9.52;;;;;;;;;;5032014;28;20551;-73
2023/09/07 03:18:22;;;;;;;11.60;10.40;;;;;;;;;;5029776;28;20210;-73
2023/09/07 03:20:48;;;;;;;11.82;10.20;;;;;;;;;;5031503;28;20679;-73
2023/09/07 03:23:13;;;;;;;12.23;10.02;;;;;;;;;;5031250;28;20200;-73
2023/09/07 03:25:39;;;;;;;12.15;10.95;;;;;;;;;;5028517;28;20206;-73
2023/09/07 03:28:05;;;;;;;11.90;10.70;;;;;;;;;;5030325;28;20296;-73
2023/09/07 03:30:30;;;;;;;12.75;10.88;;;;;;;;;;5028927;28;20196;-73
2023/09/07 03:32:55;;;;;;;12.27;11.05;;;;;;;;;;5032188;28;20224;-74
2023/09/07 03:35:21;;;;;;;14.45;11.13;;;;;;;;;;5030615;28;20205;-73
2023/09/07 03:37:47;;;;;;;11.43;10.15;;;;;;;;;;5029011;28;20182;-73
2023/09/07 03:40:12;;;;;;;13.73;10.93;;;;;;;;;;5033269;28;20201;-73
2023/09/07 03:42:39;;;;;;;12.10;10.90;;;;;;;;;;5028042;28;20194;-73
2023/09/07 03:45:05;;;;;;;13.82;11.60;;;;;;;;;;5031050;28;20201;-73
2023/09/07 03:47:30;;;;;;;12.02;10.85;;;;;;;;;;5029275;28;20650;-73
2023/09/07 03:50:00;;;;;;;13.32;11.05;;;;;;;;;;5030159;28;20265;-73
2023/09/07 03:52:26;;;;;;;12.77;11.52;;;;;;;;;;5023490;28;20194;-73
2023/09/07 03:54:53;;;;;;;17.45;11.63;;;;;;;;;;5022842;28;20190;-73
2023/09/07 03:57:19;;;;;;;13.43;11.38;;;;;;;;;;5023251;28;20198;-73
2023/09/07 03:59:45;;;;;;;13.02;11.07;;;;;;;;;;5023204;28;20194;-73
2023/09/07 04:02:11;;;;;;;14.32;11.75;;;;;;;;;;5014877;28;20580;-73
2023/09/07 04:04:36;;;;;;;12.27;11.00;;;;;;;;;;5019144;28;20202;-73
2023/09/07 04:07:01;;;;;;;12.38;10.93;;;;;;;;;;5016448;28;20225;-73
2023/09/07 04:09:27;;;;;;;13.85;11.35;;;;;;;;;;5012029;28;20697;-73
2023/09/07 04:11:52;;;;;;;14.18;11.95;;;;;;;;;;5015409;28;20189;-73
2023/09/07 04:14:17;;;;;;;17.98;11.48;;;;;;;;;;5020239;28;20191;-74
2023/09/07 04:16:43;;;;;;;13.50;11.65;;;;;;;;;;5018985;28;20194;-73
2023/09/07 04:19:09;;;;;;;14.52;10.95;;;;;;;;;;5025782;28;20183;-73
2023/09/07 04:21:36;;;;;;;14.02;11.23;;;;;;;;;;5025603;28;20304;-73
2023/09/07 04:24:01;;;;;;;13.77;11.13;;;;;;;;;;5021789;28;20199;-73
2023/09/07 04:26:26;;;;;;;13.25;11.52;;;;;;;;;;5020920;28;20218;-73
2023/09/07 04:28:52;;;;;;;12.80;11.40;;;;;;;;;;5023853;28;20194;-73
2023/09/07 04:31:17;;;;;;;15.05;12.48;;;;;;;;;;5013060;28;20235;-73
2023/09/07 04:33:42;;;;;;;12.70;11.40;;;;;;;;;;5029992;28;20205;-73
2023/09/07 04:36:13;;;;;;;12.82;11.45;;;;;;;;;;5024386;28;20905;-73
2023/09/07 04:38:39;;;;;;;14.18;10.70;;;;;;;;;;5021218;28;20893;-73
2023/09/07 04:41:06;;;;;;;15.40;10.43;;;;;;;;;;5023248;28;20188;-73
2023/09/07 04:43:31;;;;;;;14.57;12.05;;;;;;;;;;5027947;28;20306;-73
2023/09/07 04:45:57;;;;;;;15.82;11.52;;;;;;;;;;5026902;28;20290;-73
2023/09/07 04:48:22;;;;;;;20.45;13.30;;;;;;;;;;5028555;28;20278;-73
2023/09/07 04:50:48;;;;;;;15.32;12.35;;;;;;;;;;5023408;28;20638;-73
2023/09/07 04:53:13;;;;;;;13.77;12.25;;;;;;;;;;5013958;28;20197;-73
2023/09/07 04:55:38;;;;;;;15.98;12.57;;;;;;;;;;5025755;28;20234;-73
2023/09/07 04:58:04;;;;;;;16.25;11.70;;;;;;;;;;5022362;28;20560;-74
2023/09/07 05:00:29;;;;;;;14.70;12.70;;;;;;;;;;5025887;28;20198;-73
2023/09/07 05:02:54;;;;;;;18.70;12.45;;;;;;;;;;5024975;28;20193;-73
2023/09/07 05:05:20;;;;;;;18.85;12.75;;;;;;;;;;5027651;28;20190;-73
2023/09/07 05:07:45;;;;;;;14.57;12.05;;;;;;;;;;5008372;28;20300;-73
2023/09/07 05:10:12;;;;;;;16.02;12.65;;;;;;;;;;5025999;28;20201;-73
2023/09/07 05:12:37;;;;;;;15.05;12.02;;;;;;;;;;5028458;28;20186;-73
2023/09/07 05:15:06;;;;;;;13.10;11.65;;;;;;;;;;5016450;28;20608;-73
2023/09/07 05:17:32;;;;;;;12.98;11.65;;;;;;;;;;5022382;28;20202;-73
2023/09/07 05:19:57;;;;;;;14.77;12.30;;;;;;;;;;5023026;28;20197;-73
2023/09/07 05:22:22;;;;;;;14.57;11.15;;;;;;;;;;5023059;28;20194;-73
2023/09/07 05:24:48;;;;;;;17.88;12.35;;;;;;;;;;5017959;28;20759;-73
2023/09/07 05:27:13;;;;;;;13.15;11.38;;;;;;;;;;5015154;28;20222;-72
2023/09/07 05:29:38;;;;;;;13.73;11.55;;;;;;;;;;5026115;28;20233;-72
2023/09/07 05:32:04;;;;;;;13.23;11.80;;;;;;;;;;5023286;28;20193;-72
2023/09/07 05:34:30;;;;;;;14.32;11.35;;;;;;;;;;5015648;28;20222;-72
2023/09/07 05:36:56;;;;;;;13.27;11.82;;;;;;;;;;5020243;28;20273;-72
2023/09/07 05:39:21;;;;;;;14.45;12.25;;;;;;;;;;5021721;28;20209;-73
2023/09/07 05:41:49;;;;;;;15.35;11.95;;;;;;;;;;5027712;28;20273;-73
2023/09/07 05:44:14;;;;;;;14.70;11.32;;;;;;;;;;5024418;28;20727;-73
2023/09/07 05:46:40;;;;;;;13.07;11.00;;;;;;;;;;5024210;28;20253;-73
2023/09/07 05:49:05;;;;;;;16.13;11.70;;;;;;;;;;5027206;28;20856;-73
2023/09/07 05:51:31;;;;;;;15.00;11.60;;;;;;;;;;5030970;28;20217;-73
2023/09/07 05:53:56;;;;;;;13.70;11.18;;;;;;;;;;5034780;28;20198;-73
2023/09/07 05:56:22;;;;;;;17.40;11.35;;;;;;;;;;5032505;28;20190;-74
2023/09/07 05:58:47;;;;;;;15.82;11.82;;;;;;;;;;5032905;28;20205;-73
2023/09/07 06:01:13;;;;;;;14.20;11.18;;;;;;;;;;5024846;28;20598;-73
2023/09/07 06:03:39;;;;;;;17.88;11.35;;;;;;;;;;5030993;28;20225;-73
2023/09/07 06:06:04;;;;;;;13.93;11.43;;;;;;;;;;5024624;28;20213;-73
2023/09/07 06:08:30;;;;;;;13.45;12.10;;;;;;;;;;5023874;28;20535;-73
2023/09/07 06:10:55;;;;;;;13.50;11.25;;;;;;;;;;5031792;28;20198;-73
2023/09/07 06:13:20;;;;;;;14.27;11.15;;;;;;;;;;5030907;28;20198;-73
2023/09/07 06:15:46;;;;;;;12.43;11.15;;;;;;;;;;5027329;28;20252;-73
2023/09/07 06:18:11;;;;;;;14.50;11.73;;;;;;;;;;5031197;28;20568;-73
2023/09/07 06:20:37;;;;;;;15.95;11.82;;;;;;;;;;5031048;28;20198;-73
2023/09/07 06:23:02;;;;;;;16.08;11.48;;;;;;;;;;5030347;28;20186;-74
2023/09/07 06:25:28;;;;;;;14.32;11.52;;;;;;;;;;5029587;28;20186;-73
2023/09/07 06:27:53;;;;;;;11.93;10.38;;;;;;;;;;5030835;28;20210;-73
2023/09/07 06:30:19;;;;;;;13.90;11.40;;;;;;;;;;5040112;28;20190;-74
2023/09/07 06:32:44;;;;;;;13.02;10.63;;;;;;;;;;5021412;28;20206;-74
2023/09/07 06:35:10;;;;;;;12.15;10.23;;;;;;;;;;5016553;28;20217;-73
2023/09/07 06:37:36;;;;;;;11.85;10.60;;;;;;;;;;5031691;28;20559;-74
2023/09/07 06:40:03;;;;;;;15.10;10.68;;;;;;;;;;5021150;28;20194;-73
2023/09/07 06:42:30;;;;;;;12.32;10.13;;;;;;;;;;5023044;28;20198;-73
2023/09/07 06:44:56;;;;;;;15.98;11.45;;;;;;;;;;5015924;28;20575;-73
2023/09/07 06:47:21;;;;;;;12.45;10.35;;;;;;;;;;5024298;28;20218;-73
2023/09/07 06:49:46;;;;;;;14.88;10.20;;;;;;;;;;5030968;28;20190;-73
2023/09/07 06:52:13;;;;;;;13.63;10.48;;;;;;;;;;5004869;28;20214;-73
2023/09/07 06:54:38;;;;;;;13.00;10.70;;;;;;;;;;5011393;28;20203;-73
2023/09/07 06:57:07;;;;;;;11.77;10.07;;;;;;;;;;5025197;28;20348;-73
2023/09/07 06:59:33;;;;;;;11.05;9.77;;;;;;;;;;5024697;28;20186;-73
2023/09/07 07:01:59;;;;;;;11.70;9.60;;;;;;;;;;5031557;28;20273;-73
2023/09/07 07:04:25;;;;;;;14.00;9.75;;;;;;;;;;5023704;28;20320;-73
2023/09/07 07:06:50;;;;;;;14.38;9.73;;;;;;;;;;5024874;28;20770;-73
2023/09/07 07:09:16;;;;;;;11.20;9.98;;;;;;;;;;5023080;28;20625;-73
2023/09/07 07:11:42;;;;;;;13.63;8.98;;;;;;;;;;5019237;28;20194;-73
2023/09/07 07:14:08;;;;;;;10.30;9.23;;;;;;;;;;5015786;28;20532;-73
2023/09/07 07:16:34;;;;;;;12.45;9.93;;;;;;;;;;5013453;28;20607;-73
2023/09/07 07:18:59;;;;;;;13.50;9.45;;;;;;;;;;5011903;28;20230;-73
2023/09/07 07:21:25;;;;;;;14.00;10.07;;;;;;;;;;5021437;28;20210;-72
2023/09/07 07:23:50;;;;;;;11.52;9.57;;;;;;;;;;5031005;28;20186;-73
2023/09/07 07:26:17;;;;;;;13.80;9.50;;;;;;;;;;5024763;28;20579;-73
2023/09/07 07:28:42;;;;;;;13.68;9.02;;;;;;;;;;5026772;28;20637;-73
2023/09/07 07:31:11;;;;;;;11.75;9.23;;;;;;;;;;5023360;28;20222;-73
2023/09/07 07:33:37;;;;;;;9.77;8.77;;;;;;;;;;5025546;28;20206;-73
2023/09/07 07:36:04;;;;;;;14.27;8.95;;;;;;;;;;5025356;28;20648;-72
2023/09/07 07:38:29;;;;;;;10.27;8.20;;;;;;;;;;5029899;28;20194;-73
2023/09/07 07:40:54;;;;;;;9.90;8.27;;;;;;;;;;5015819;28;20688;-72
2023/09/07 07:43:20;;;;;;;12.10;8.65;;;;;;;;;;5020847;28;20230;-72
2023/09/07 07:45:45;;;;;;;14.05;9.48;;;;;;;;;;5027844;28;20199;-72
2023/09/07 07:48:10;;;;;;;14.80;8.20;;;;;;;;;;5026905;28;20713;-73
2023/09/07 07:50:40;;;;;;;10.73;8.23;;;;;;;;;;5015154;28;20198;-73
2023/09/07 07:53:06;;;;;;;13.18;9.30;;;;;;;;;;5014296;28;20182;-73
2023/09/07 07:55:38;;;;;;;11.60;9.32;;;;;;;;;;5024023;28;20194;-72
2023/09/07 07:58:08;;;;;;;9.55;8.32;;;;;;;;;;5019209;28;20269;-72
2023/09/07 08:00:37;;;;;;;11.02;8.63;;;;;;;;;;5015728;28;20200;-73
2023/09/07 08:03:04;;;;;;;10.18;8.57;;;;;;;;;;5009886;28;20198;-73
2023/09/07 08:05:31;;;;;;;10.70;8.32;;;;;;;;;;5019049;28;20603;-73
2023/09/07 08:07:56;;;;;;;10.57;8.45;;;;;;;;;;5021038;28;20212;-73
2023/09/07 08:10:22;;;;;;;9.45;8.25;;;;;;;;;;5031538;28;20179;-73
2023/09/07 08:12:47;;;;;;;11.93;8.73;;;;;;;;;;5027258;28;20201;-73
2023/09/07 08:15:14;;;;;;;13.70;8.43;;;;;;;;;;5024420;28;20182;-73
2023/09/07 08:17:40;;;;;;;11.93;8.55;;;;;;;;;;5001708;28;20555;-73
2023/09/07 08:20:07;;;;;;;13.10;7.60;;;;;;;;;;5036886;28;20333;-73
2023/09/07 08:22:35;;;;;;;14.40;8.30;;;;;;;;;;5028801;28;20194;-73
2023/09/07 08:25:00;;;;;;;14.70;8.77;;;;;;;;;;5018150;28;20193;-73
2023/09/07 08:27:26;;;;;;;14.00;8.35;;;;;;;;;;5031913;28;20218;-73
2023/09/07 08:29:53;;;;;;;12.40;8.07;;;;;;;;;;5012783;28;20278;-73
2023/09/07 08:32:19;;;;;;;9.82;6.95;;;;;;;;;;5017430;28;20199;-73
2023/09/07 08:34:44;;;;;;;8.63;6.72;;;;;;;;;;5012672;28;20513;-74
2023/09/07 08:37:09;;;;;;;11.25;7.70;;;;;;;;;;5025348;28;20193;-74
2023/09/07 08:39:36;;;;;;;7.95;7.15;;;;;;;;;;5010916;28;20191;-74
2023/09/07 08:42:02;;;;;;;11.68;7.63;;;;;;;;;;5024714;28;20201;-74
2023/09/07 08:44:29;;;;;;;9.52;7.00;;;;;;;;;;5011562;28;20227;-74
2023/09/07 08:46:55;;;;;;;9.73;7.65;;;;;;;;;;5017317;28;20618;-74
2023/09/07 08:49:20;;;;;;;9.95;7.03;;;;;;;;;;5015819;28;20261;-74
2023/09/07 08:51:47;;;;;;;10.43;6.55;;;;;;;;;;5043996;28;20197;-74
2023/09/07 08:54:12;;;;;;;11.23;6.80;;;;;;;;;;5022773;28;20475;-74
2023/09/07 08:56:38;;;;;;;13.10;7.15;;;;;;;;;;5033731;28;20192;-74
2023/09/07 08:59:04;;;;;;;8.32;6.32;;;;;;;;;;5029412;28;20700;-74
2023/09/07 09:01:31;;;;;;;10.88;6.70;;;;;;;;;;4997769;28;20274;-73
2023/09/07 09:03:57;;;;;;;11.00;6.60;;;;;;;;;;5025081;28;20186;-72
2023/09/07 09:06:22;;;;;;;7.05;5.32;;;;;;;;;;4998518;28;20294;-73
2023/09/07 09:08:54;;;;;;;5.90;5.30;;;;;;;;;;5032906;28;20603;-73
2023/09/07 09:11:20;;;;;;;7.20;5.20;;;;;;;;;;5024669;28;20663;-73
2023/09/07 09:13:47;;;;;;;8.05;5.57;;;;;;;;;;5009000;28;20198;-73
2023/09/07 09:16:13;;;;;;;5.38;4.82;;;;;;;;;;5014497;28;20321;-73
2023/09/07 09:18:52;;;;;;;7.03;5.32;;;;;;;;;;5035782;28;20220;-73
2023/09/07 09:21:20;;;;;;;10.07;5.47;;;;;;;;;;5019883;28;20279;-73
2023/09/07 09:23:48;;;;;;;9.30;4.85;;;;;;;;;;5024724;28;20193;-74
2023/09/07 09:26:13;;;;;;;7.13;4.57;;;;;;;;;;5033126;28;20654;-74
2023/09/07 09:28:39;;;;;;;4.68;4.28;;;;;;;;;;5017541;28;20360;-74
2023/09/07 09:31:04;;;;;;;6.32;4.85;;;;;;;;;;5021415;28;20654;-74
2023/09/07 09:33:31;;;;;;;6.07;4.72;;;;;;;;;;5013892;28;20179;-74
2023/09/07 09:35:57;;;;;;;6.10;4.70;;;;;;;;;;5035912;28;20720;-74
2023/09/07 09:38:23;;;;;;;8.32;5.03;;;;;;;;;;5027182;28;20268;-73
2023/09/07 09:40:49;;;;;;;6.13;4.22;;;;;;;;;;5042130;28;20190;-74
2023/09/07 09:43:15;;;;;;;8.18;4.55;;;;;;;;;;5033338;28;20222;-73
2023/09/07 09:45:41;;;;;;;8.80;4.55;;;;;;;;;;5015674;28;20454;-74
2023/09/07 09:48:06;;;;;;;7.30;4.28;;;;;;;;;;5030608;28;20646;-74
2023/09/07 09:50:38;;;;;;;7.97;4.30;;;;;;;;;;5023975;28;20182;-73
2023/09/07 09:53:07;;;;;;;5.95;4.55;;;;;;;;;;5029715;28;20240;-73
2023/09/07 09:55:36;;;;;;;8.70;4.75;;;;;;;;;;5029904;28;20236;-73
2023/09/07 09:58:02;;;;;;;9.30;4.38;;;;;;;;;;5029052;28;20194;-73
2023/09/07 10:00:29;;;;;;;7.82;4.35;;;;;;;;;;5012318;28;20183;-73
2023/09/07 10:03:00;;;;;;;7.43;4.47;;;;;;;;;;5026716;28;20574;-74
2023/09/07 10:05:26;;;;;;;7.20;4.68;;;;;;;;;;5047769;28;20190;-74
2023/09/07 10:07:52;;;;;;;9.63;4.75;;;;;;;;;;5027961;28;20244;-74
2023/09/07 10:10:19;;;;;;;7.30;4.43;;;;;;;;;;5011649;28;20245;-73
2023/09/07 10:12:53;;;;;;;9.82;5.05;;;;;;;;;;5028149;28;20194;-74
2023/09/07 10:15:26;;;;;;;5.18;4.38;;;;;;;;;;5040191;28;20218;-74
2023/09/07 10:18:09;;;;;;;5.68;4.30;;;;;;;;;;5022839;28;20230;-74
2023/09/07 10:20:55;;;;;;;6.55;4.78;;;;;;;;;;5045822;28;20190;-75
2023/09/07 10:23:23;;;;;;;9.20;4.68;;;;;;;;;;5029034;28;20661;-74
2023/09/07 10:25:51;;;;;;;6.15;4.80;;;;;;;;;;5031647;28;20186;-75
2023/09/07 10:28:23;;;;;;;6.43;4.93;;;;;;;;;;5021219;28;20677;-75
2023/09/07 10:31:18;;;;;;;7.18;4.75;;;;;;;;;;5034488;28;20536;-75
2023/09/07 10:33:45;;;;;;;9.32;4.40;;;;;;;;;;5024439;28;20194;-72
2023/09/07 10:36:22;;;;;;;7.65;4.80;;;;;;;;;;5031177;28;20189;-74
2023/09/07 10:38:47;;;;;;;6.07;4.35;;;;;;;;;;5028686;28;20675;-74
2023/09/07 10:41:13;;;;;;;6.85;4.30;;;;;;;;;;5011459;28;20294;-74
2023/09/07 10:43:50;;;;;;;4.65;4.07;;;;;;;;;;5031018;28;20313;-73
2023/09/07 10:46:19;;;;;;;6.35;4.50;;;;;;;;;;5025482;28;20262;-74
2023/09/07 10:48:45;;;;;;;8.88;4.63;;;;;;;;;;5016654;28;20265;-74
2023/09/07 10:51:10;;;;;;;6.68;4.38;;;;;;;;;;5017107;28;20366;-73
2023/09/07 10:53:36;;;;;;;6.47;4.60;;;;;;;;;;5047281;28;20190;-74
2023/09/07 10:56:05;;;;;;;12.02;4.47;;;;;;;;;;5018747;28;20195;-74
2023/09/07 10:58:33;;;;;;;6.40;4.90;;;;;;;;;;5014854;28;20206;-75
2023/09/07 11:00:59;;;;;;;7.25;4.40;;;;;;;;;;5047494;28;20186;-75
2023/09/07 11:03:26;;;;;;;4.60;4.10;;;;;;;;;;5025789;28;20266;-74
2023/09/07 11:05:55;;;;;;;4.40;3.95;;;;;;;;;;5012021;28;20241;-74
2023/09/07 11:08:21;;;;;;;4.45;4.05;;;;;;;;;;5028108;28;20524;-74
2023/09/07 11:10:46;;;;;;;5.65;4.43;;;;;;;;;;5031262;28;20194;-74
2023/09/07 11:13:12;;;;;;;8.35;4.22;;;;;;;;;;5025206;28;20198;-75
2023/09/07 11:15:39;;;;;;;6.40;3.97;;;;;;;;;;5007105;28;20195;-74
2023/09/07 11:18:07;;;;;;;6.88;3.88;;;;;;;;;;5026027;28;20222;-74
2023/09/07 11:20:35;;;;;;;6.35;3.80;;;;;;;;;;5018649;28;20220;-75
2023/09/07 11:23:00;;;;;;;4.70;3.88;;;;;;;;;;5027195;28;20190;-74
2023/09/07 11:25:26;;;;;;;4.82;3.65;;;;;;;;;;5017229;28;20273;-74
2023/09/07 11:27:57;;;;;;;5.18;3.63;;;;;;;;;;5041177;28;20222;-75
2023/09/07 11:30:24;;;;;;;6.22;3.60;;;;;;;;;;5018944;28;20182;-75
2023/09/07 11:32:49;;;;;;;6.78;4.00;;;;;;;;;;5016247;28;20278;-75
2023/09/07 11:35:15;;;;;;;5.90;4.10;;;;;;;;;;5016273;28;20190;-76
2023/09/07 11:37:40;;;;;;;7.53;3.75;;;;;;;;;;5014631;28;20273;-75
2023/09/07 11:40:11;;;;;;;7.47;3.80;;;;;;;;;;5027243;28;20620;-74
2023/09/07 11:42:38;;;;;;;7.68;3.35;;;;;;;;;;5029192;28;20186;-74
2023/09/07 11:45:06;;;;;;;4.78;3.70;;;;;;;;;;5024873;28;20182;-75
2023/09/07 11:47:31;;;;;;;7.15;3.67;;;;;;;;;;5012408;28;20257;-75
2023/09/07 11:49:57;;;;;;;5.40;3.45;;;;;;;;;;5029254;28;20666;-75
2023/09/07 11:52:22;;;;;;;4.07;3.65;;;;;;;;;;5013873;28;20245;-75
2023/09/07 11:54:47;;;;;;;7.03;3.58;;;;;;;;;;5012761;28;20233;-73
2023/09/07 11:57:15;;;;;;;4.32;3.88;;;;;;;;;;5021866;28;20201;-75
2023/09/07 11:59:41;;;;;;;5.18;3.80;;;;;;;;;;5014414;28;20198;-74
2023/09/07 12:02:06;;;;;;;8.13;3.90;;;;;;;;;;5018168;28;20262;-74
2023/09/07 12:04:32;;;;;;;4.60;4.05;;;;;;;;;;5029956;28;20208;-75
2023/09/07 12:06:57;;;;;;;5.15;3.80;;;;;;;;;;5026553;28;20230;-75
2023/09/07 12:09:22;;;;;;;5.40;3.90;;;;;;;;;;5025167;28;20196;-75
2023/09/07 12:11:48;;;;;;;4.35;3.60;;;;;;;;;;5009832;28;20199;-75
2023/09/07 12:14:13;;;;;;;7.05;3.92;;;;;;;;;;5030944;28;20193;-75
2023/09/07 12:16:39;;;;;;;5.35;3.47;;;;;;;;;;5017926;28;20193;-75
2023/09/07 12:19:04;;;;;;;6.35;3.47;;;;;;;;;;5015654;28;20194;-75
2023/09/07 12:21:29;;;;;;;4.63;3.60;;;;;;;;;;5028068;28;20630;-73
2023/09/07 12:23:55;;;;;;;6.30;3.90;;;;;;;;;;5039791;28;20197;-75
2023/09/07 12:26:20;;;;;;;4.68;4.15;;;;;;;;;;5011694;28;20213;-75
2023/09/07 12:28:47;;;;;;;4.97;3.63;;;;;;;;;;5039517;28;20183;-74
2023/09/07 12:31:12;;;;;;;5.00;3.40;;;;;;;;;;5022461;28;20186;-74
2023/09/07 12:33:38;;;;;;;4.95;4.20;;;;;;;;;;5025205;28;20195;-74
2023/09/07 12:36:05;;;;;;;6.43;4.13;;;;;;;;;;5026080;28;20187;-74
2023/09/07 12:38:30;;;;;;;4.05;3.47;;;;;;;;;;5022053;28;20197;-75
2023/09/07 12:40:55;;;;;;;5.28;3.72;;;;;;;;;;5027079;28;20194;-74
2023/09/07 12:43:21;;;;;;;5.45;3.90;;;;;;;;;;5020117;28;20508;-74
2023/09/07 12:45:46;;;;;;;5.18;3.65;;;;;;;;;;5021311;28;20182;-74
2023/09/07 12:48:12;;;;;;;4.22;3.78;;;;;;;;;;5027237;28;20585;-73
2023/09/07 12:50:39;;;;;;;6.10;4.13;;;;;;;;;;5025822;28;20209;-74
2023/09/07 12:53:04;;;;;;;8.88;3.92;;;;;;;;;;5025596;28;20194;-73
2023/09/07 12:55:30;;;;;;;5.05;3.95;;;;;;;;;;5029078;28;20178;-75
2023/09/07 12:57:55;;;;;;;5.45;4.00;;;;;;;;;;5023274;28;20273;-75
2023/09/07 13:00:21;;;;;;;6.20;3.78;;;;;;;;;;5021151;28;20646;-74
2023/09/07 13:02:46;;;;;;;5.18;3.80;;;;;;;;;;5039236;28;20221;-74
2023/09/07 13:05:12;;;;;;;8.65;4.05;;;;;;;;;;5026163;28;20178;-75
2023/09/07 13:07:37;;;;;;;4.10;3.70;;;;;;;;;;5012452;28;20241;-75
2023/09/07 13:10:04;;;;;;;5.75;3.95;;;;;;;;;;5026783;28;20191;-75
2023/09/07 13:12:30;;;;;;;5.93;3.70;;;;;;;;;;5023082;28;20677;-74
2023/09/07 13:14:56;;;;;;;3.85;3.30;;;;;;;;;;5006851;28;20210;-74
2023/09/07 13:17:21;;;;;;;7.57;4.00;;;;;;;;;;5035057;28;20503;-75
2023/09/07 13:19:48;;;;;;;4.00;3.60;;;;;;;;;;5014477;28;20203;-74
2023/09/07 13:22:13;;;;;;;6.53;3.72;;;;;;;;;;5014426;28;20664;-75
2023/09/07 13:24:39;;;;;;;6.18;3.53;;;;;;;;;;5044319;28;20393;-75
2023/09/07 13:27:04;;;;;;;6.85;3.80;;;;;;;;;;5022976;28;20206;-74
2023/09/07 13:29:31;;;;;;;6.07;3.47;;;;;;;;;;5018225;28;20217;-74
2023/09/07 13:31:58;;;;;;;4.40;3.75;;;;;;;;;;5022806;28;20183;-74
2023/09/07 13:34:24;;;;;;;5.43;3.83;;;;;;;;;;5027787;28;20230;-75
2023/09/07 13:36:49;;;;;;;7.60;3.72;;;;;;;;;;5017532;28;20194;-74
2023/09/07 13:39:15;;;;;;;3.72;3.40;;;;;;;;;;5025719;28;20197;-73
2023/09/07 13:41:40;;;;;;;6.35;3.65;;;;;;;;;;5023515;28;20187;-74
2023/09/07 13:44:06;;;;;;;7.97;3.70;;;;;;;;;;5025878;28;20300;-75
2023/09/07 13:46:31;;;;;;;6.03;3.55;;;;;;;;;;5029517;28;20210;-75
2023/09/07 13:48:57;;;;;;;5.10;3.45;;;;;;;;;;5027765;28;20589;-75
2023/09/07 13:51:22;;;;;;;5.38;3.95;;;;;;;;;;5028031;28;20189;-75
2023/09/07 13:53:49;;;;;;;5.50;3.67;;;;;;;;;;5034274;28;20195;-74
2023/09/07 13:56:15;;;;;;;4.13;3.53;;;;;;;;;;5018694;28;20270;-75
2023/09/07 13:58:40;;;;;;;5.35;3.50;;;;;;;;;;5028215;28;20716;-74
2023/09/07 14:01:06;;;;;;;5.13;3.65;;;;;;;;;;5028351;28;20183;-74
2023/09/07 14:03:31;;;;;;;4.40;3.30;;;;;;;;;;5025164;28;20674;-75
2023/09/07 14:05:57;;;;;;;4.93;3.65;;;;;;;;;;5017965;28;20197;-75
2023/09/07 14:08:24;;;;;;;7.68;3.90;;;;;;;;;;5028132;28;20190;-74
2023/09/07 14:10:50;;;;;;;4.80;3.58;;;;;;;;;;5028406;28;20225;-75
2023/09/07 14:13:17;;;;;;;5.53;3.90;;;;;;;;;;5028412;28;20182;-75
2023/09/07 14:15:42;;;;;;;3.88;3.53;;;;;;;;;;5017507;28;20195;-75
2023/09/07 14:18:08;;;;;;;4.00;3.63;;;;;;;;;;5014639;28;20573;-73
2023/09/07 14:20:33;;;;;;;4.65;4.03;;;;;;;;;;5028501;28;20213;-73
2023/09/07 14:23:00;;;;;;;4.35;3.22;;;;;;;;;;5045370;28;20185;-75
2023/09/07 14:25:26;;;;;;;4.53;3.70;;;;;;;;;;5016772;28;20247;-74